Last Name
 
 
First Name
 
Sex/
Age
 
 
Bib
 
 
Team
 
 
City
 
 
State
 
 
Country
 
Overall
Place
 
Gender
Place
 
Age
Place
 
Finish
Time
 
Pace/
Mile
 
AG
Time
AG
Gender
Place
 
 
AG %
BATEMAN NOEL M18 10708   NEW ROCHELLE NY   1 1 1 15:49 5:06 15:17 2 84.3 %
WALSH AIDAN M26 10733   CLIFFSIDE PARK NJ   2 2 1 16:07 5:11 16:07 12 80.0 %
LEE TERENCE M17 10701   PHILADELPHIA PA   3 3 2 16:20 5:16 15:35 6 82.7 %
ROBERTS JOHN M27 10729 CPTC NEW YORK NY   4 4 2 16:23 5:17 16:23 14 78.7 %
SILVA EMERSON M32 10768 WSX NEW YORK NY   5 5 1 16:49 5:25 16:41 18 77.3 %
CHEN WAYNE M30 10785   NEW YORK NY   6 6 2 16:58 5:28 16:55 24 76.2 %
TRUNKES MICHAEL M44 10814 CPTC NEW PALTZ NY   7 7 1 17:01 5:29 15:36 7 82.6 %
FITZGERALD NEIL M38 10787 CPTC NEW YORK NY   8 8 3 17:04 5:30 16:22 13 78.7 %
BOIS STEPHANE M41 10825 WS NEW YORK NY   9 9 2 17:06 5:30 16:02 11 80.4 %
SHIELDS CHUCK M47 10843   ABINGTON PA   10 10 1 17:08 5:31 15:20 3 84.0 %
JONES JAMAR M17 10700   PHILADELPHIA PA   11 11 3 17:11 5:32 16:24 15 78.6 %
DAMBKOWSKI CARL M22 10746 CPTC NEW YORK NY   12 12 3 17:13 5:33 17:12 31 74.9 %
LEBOURNE ANSELM M47 10847 CPTC MAPLEWOOD NJ   13 13 2 17:15 5:33 15:27 4 83.4 %
BAILEY RICARDO M33 10798   BROOKLYN NY   14 14 4 17:25 5:37 17:12 32 74.9 %
REDDY VENKAT M28 10732 WTC NORTH BERGEN NJ   15 15 4 17:28 5:38 17:27 39 73.8 %
WILSON MICHAEL M28 10738   BRONX NY   16 16 5 17:29 5:38 17:28 40 73.7 %
RIMKIS BOB M45 10844   WEST CHESTER PA   17 17 3 17:29 5:38 15:54 9 81.0 %
CALVEY JONATHAN M26 10727 CPTC NEW YORK NY   18 18 6 17:31 5:39 17:31 42 73.6 %
LANSNER NOAH M28 10722 CPTC BROOKLYN NY   19 19 7 17:34 5:40 17:33 44 73.4 %
OSTENSON JASON M27 10734 CPTC LONG ISLAND CITY NY   20 20 8 17:37 5:40 17:37 48 73.2 %
TALONE DAVID M30 10766   BROOKLYN NY   21 21 5 17:37 5:40 17:34 46 73.4 %
CASTRO LINO M30 10767 UATH SUNNYSIDE NY   22 22 6 17:37 5:40 17:34 47 73.4 %
SPENCE NEELY F16 10921   SHIPPENSBURG PA   23 1 1 17:38 5:41 17:03 2 86.7 %
MURPHY MICHAEL M17 10699   PEEKSKILL NY   24 23 4 17:42 5:42 16:54 23 76.3 %
OLIVEIRA ARMANDO M39 10790 CPTC NEW ROCHELLE NY   25 24 7 17:48 5:44 16:56 25 76.1 %
SCHNEIDER BRAD M34 10765   BOWLING GREEN KY   26 25 8 17:51 5:45 17:33 45 73.4 %
SWEENEY THOMAS M29 10948   NEW YORK NY   27 26 9 17:55 5:46 17:54 54 72.0 %
KENNEDY JOSEPH M27 10745   WOODSIDE NY   28 27 10 18:01 5:48 18:01 56 71.6 %
PHILLIPS TOM M51 10875 CPTC BRONXVILLE NY   29 28 1 18:02 5:49 15:38 8 82.4 %
POTTER CHRISTOPHER M41 10817 CPTC NEW YORK NY   30 29 3 18:04 5:49 16:56 26 76.1 %
PRINCE ADAM M43 10815   PHILADELPHIA PA   31 30 4 18:07 5:50 16:44 19 77.0 %
PETERS LINDEN M23 10950   BROOKLYN NY   32 31 11 18:10 5:51 18:10 61 71.0 %
RUIZ ANTHONY M45 10848 CPTC JAMAICA NY   33 32 4 18:11 5:51 16:32 17 77.9 %
BIONE STEPHEN M17 10710   ASTORIA NY   34 33 5 18:14 5:52 17:24 37 74.0 %
FORDE KEVIN M42 10816   PHILA PA   35 34 5 18:14 5:52 16:58 27 75.9 %
GOMEZ ALBERTO M36 10779 WSX ELMHURST NY   36 35 9 18:15 5:53 17:45 50 72.6 %
CROFFORD LARA F17 10923   NEWVILLE PA   37 2 2 18:15 5:53 17:52 3 82.8 %
WITMER COREY M29 10728 CPTC NY NY   38 36 12 18:17 5:53 18:16 65 70.6 %
HRYNKOW CHRIS M29 10751   OTTAWA ONTARIO CANADA 39 37 13 18:17 5:53 18:16 66 70.6 %
AFFLECK JOHN M42 10819 CPTC NEW YORK NY   40 38 6 18:18 5:54 17:02 28 75.7 %
NELAN BRIAN M29 10735 CPTC HOBOKEN NJ   41 39 14 18:19 5:54 18:18 67 70.4 %
BOYLE ERIN F26 10528   NEW YORK NY   42 3 1 18:22 5:55 18:22 4 80.5 %
BOSCH DAVID M40 10827 CPTC SUNNYSIDE NY   43 40 7 18:25 5:56 17:24 38 74.1 %
TLATEMPA AMADO M26 10750 WSX BRONX NY   44 41 15 18:28 5:57 18:28 71 69.8 %
GLEESON ABBI F25 10544 NYAC NEW YORK NY   45 4 2 18:31 5:58 18:31 6 79.9 %
XHARRA VALON M27 10742 CPTC NEW YORK NY   46 42 16 18:33 5:59 18:33 74 69.5 %
BIERBAUM CAROLINE F23 10540 NYAC NEW YORK NY   47 5 3 18:35 5:59 18:35 7 79.6 %
GERMOSEN LEANDRO M39 10772 CPTC NEW YORK NY   48 43 10 18:35 5:59 17:41 49 72.9 %
ROBBIE CATHERINE F26 10529 NYAC RED BANK NJ   49 6 4 18:37 6:00 18:37 8 79.4 %
HERTLER DOUG M36 10773 CPTC NEW YORK NY   50 44 11 18:39 6:00 18:08 59 71.0 %
RAMIREZ PERERANO M28 10730 WSX NEW YORK NY 51 45 17 18:41 6:01 18:40 77 69.0 %
SCHAFFER BRIAN M30 10770 CPTC NEW YORK NY 52 46 12 18:41 6:01 18:38 76 69.2 %
GUSTAFSON LAUREN F24 10547 CPTC NEW YORK NY 53 7 5 18:43 6:02 18:43 11 79.0 %
TACURI JOSE M44 10831 ATC BRONX NY 54 47 8 18:48 6:03 17:14 33 74.8 %
PORCARO JOSEPH M57 10889 TRR PUTNAM VALLEY NY 55 48 1 18:49 6:04 15:31 5 83.0 %
BABIN JOHN M43 10830   NEW YORK NY 56 49 9 18:56 6:06 17:29 41 73.7 %
HOERING OTTO M33 10795 CPTC NEW YORK NY 57 50 13 18:59 6:07 18:45 81 68.7 %
SIKORA ALLISON F17 10519   NEWTOWN PA 58 8 3 19:02 6:08 18:38 9 79.4 %
KREBS PETER M35 10793 UATH BROOKLYN NY 59 51 14 19:05 6:09 18:40 78 69.0 %
TOMA MICHAEL S M38 10794 WSX NEW YORK NY 60 52 15 19:05 6:09 18:18 68 70.4 %
MEHOLICK KASSANDRA F17 10922   NEW CUMBERLAND PA 61 9 4 19:06 6:09 18:41 10 79.1 %
LAPAT LOUIS M28 10759   NEW YORK NY 62 53 18 19:07 6:10 19:06 90 67.4 %
ALLANNIC CYRILLE M38 10783   NEW-YORK NY 63 54 16 19:08 6:10 18:21 69 70.2 %
HENSCHEL MICHAEL F M44 10826 WIT MIDDLE VILLAGE NY 64 55 10 19:08 6:10 17:32 43 73.5 %
DARRESS RUSSELL M16 10709   LYNBROOK NY 65 56 6 19:12 6:11 18:05 58 71.3 %
HIGGINS LESLEY F26 10545 NYAC NEW YORK NY 66 10 6 19:14 6:12 19:14 16 76.9 %
SANCHEZ RAUL M23 10754   BRONX NY 67 57 19 19:17 6:13 19:17 94 66.8 %
JENKINS JORDAN F15 10924   MC SHERRYSTOWN PA 68 11 5 19:19 6:13 18:26 5 80.2 %
DEWALT CHRISTOPHER M28 10724 NYF EASTON PA 69 58 20 19:20 6:14 19:19 95 66.7 %
RANDOLFI ANTHONY M25 10725       70 59 21 19:20 6:14 19:20 96 66.7 %
STOLTZ JOEY M26 10723   SELINSGROVE PA 71 60 22 19:21 6:14 19:21 98 66.6 %
MCMONAGLE PATRICK M20 10726   BAYONNE NJ 72 61 23 19:21 6:14 19:08 91 67.3 %
BROWN ALSTON M57 10886 CPTC MT VERNON NY 73 62 2 19:24 6:15 16:00 10 80.5 %
RYSZEWSKI ANDRZEJ M47 10845 WIT BROOKLYN NY 74 63 5 19:25 6:15 17:23 36 74.1 %
STAFFORD MELVYN M39 10769 CPTC BROOKLYN NY 75 64 17 19:26 6:16 18:30 72 69.7 %
ETTL FRITZ M28 10936   NEW YORK NY 76 65 24 19:27 6:16 19:26 101 66.3 %
WATERSON CARYN F23 10530 CPTC NEW YORK NY 77 12 7 19:30 6:17 19:30 18 75.8 %
SMIZASKI GREGORY M17 10705 RBH BAYONNE NJ 78 66 7 19:31 6:17 18:38 75 69.2 %
SORIANO FELIX M22 10731 WSX NEW YORK NY 79 67 25 19:35 6:19 19:34 104 65.8 %
KING KATHERINE F F28 10531 CPTC NEW YORK NY 80 13 8 19:39 6:20 19:39 19 75.3 %
BIANCO RANDO M51 10878   SELA RIOS NJ 81 68 2 19:40 6:20 17:03 29 75.6 %
FINAN JAMES M31 10789 CPTC NEW YORK NY 82 69 18 19:43 6:21 19:37 105 65.7 %
HUDSON DERRICK M45 10850   YORKTOWN HEIGHTS NY 83 70 6 19:43 6:21 17:56 55 71.9 %
SADOFF JOHNNY M22 10737   WASHINGTON DC 84 71 26 19:51 6:24 19:50 110 65.0 %
HULICK ROB M24 10740   NORWALK CT 85 72 27 19:53 6:24 19:53 113 64.8 %
RORKE MICHELLE F22 10534 NYAC BRONXVILLE NY 86 14 9 19:56 6:25 19:56 21 74.2 %
DIAZ ROBERT M24 10739   JAMAICA NY 87 73 28 19:56 6:25 19:56 115 64.7 %
HODGE STEPHANIE F41 11137   L.I.C. NY 88 15 1 19:56 6:25 19:14 17 77.4 %
WATTS JACKSON M16 10707   BROOKLYN NY 89 74 8 19:59 6:26 18:49 83 68.5 %
BRIASCO ELIZABETH F14 10503   FOREST HILLS NY 90 16 1 20:00 6:27 18:50 12 78.5 %
MILLER FRED M55 10893   LIVERPOOL NY 91 75 3 20:01 6:27 16:48 20 76.7 %
BULLIS GEORGE M45 10853 CPTC SADDLE BROOK NJ 92 76 7 20:03 6:28 18:14 63 70.7 %
NEWCOMB KIERAN M13 10684   BROOKLYN NY 93 77 1 20:05 6:28 17:51 52 72.2 %
BERTUCCO MARC M33 10799   NEW YORK NY 94 78 19 20:07 6:29 19:53 114 64.8 %
CAVARETTA TIMOTHY M24 10761 HRR ASTORIA NY 95 79 29 20:08 6:29 20:08 119 64.0 %
TAYLOR KASIA F15 10505   PHILADELPHIA PA 96 17 6 20:09 6:30 19:14 15 76.9 %
SPILKA MARC M14 10686   RIDGEWOOD NJ 97 80 2 20:14 6:31 18:23 70 70.1 %
MCDONALD TOM M38 10763   NEW YORK NY 98 81 20 20:19 6:33 19:29 102 66.1 %
HARKINS JAMES M42 10833 VCTC BRONX NY 99 82 11 20:19 6:33 18:54 84 68.2 %
ADRIANI MICAH F29 10536 CPTC NEW YORK NY 100 18 10 20:21 6:33 20:21 24 72.7 %
MICHALSKI MICHAEL M44 10821   BROOKLYN NY   101 83 12 20:30 6:36 18:47 82 68.6 %
AGUIRRE JULIO A M60 10906 GNY PERTH AMBOY NJ   102 84 1 20:30 6:36 16:29 16 78.2 %
DAVIDSON NAT M13 10679   MOHEGAN LAKE NY   103 85 3 20:33 6:37 18:16 64 70.5 %
BRANDSTAEDTER ALAN M32 10774   BRONX NY   104 86 21 20:35 6:38 20:25 123 63.1 %
LOBATO FLORES MARTIN M43 10820   PASSAIC NJ   105 87 13 20:37 6:39 19:02 89 67.7 %
BOEHMCKE PAIGE F15 10927   SUMMIT NJ   106 19 7 20:43 6:40 19:47 20 74.8 %
LABAR DOUGLAS R. M52 10877   NEW YORK NY   107 88 3 20:44 6:41 17:50 51 72.2 %
CRUZ OSIRIS M21 10760   NEW YORK NY   108 89 30 20:45 6:41 20:45 128 62.4 %
MCFARLANE JAMES E M50 10869   RIDGEWOOD NY   109 90 4 20:46 6:41 18:09 60 71.0 %
MARTINEZ DAVE M15 10711   WAYNE NJ   110 91 9 20:49 6:42 19:17 93 66.8 %
GUSTAFSSON KURT M41 10824   BROOKLYN NY   111 92 14 20:51 6:43 19:33 103 65.9 %
NOGEL JOHN M18 10706   JERSEY CITY NJ   112 93 10 20:52 6:43 20:10 120 63.9 %
HUTTON ROBERT M42 10832   NEW YORK NY   113 94 15 20:53 6:44 19:26 99 66.3 %
BAILEY SHERECE F16 10516   PHILADELPHIA PA   114 20 8 20:55 6:44 20:13 23 73.1 %
MICHEL PATRICK M45 10863   NEW YORK NY   115 95 8 20:55 6:44 19:01 88 67.7 %
SANTOLI ROBERT M57 10887   DUMONT NJ   116 96 4 20:55 6:44 17:15 35 74.7 %
KAMPF WILLIAM M48 10842   MONT CLARE PA   117 97 9 21:04 6:47 18:43 79 68.9 %
CREAMER STACY F47 10644 CPTC NEW YORK NY   118 21 1 21:05 6:48 19:07 14 77.3 %
JIMENEZ RAFAEL M53 10865   NEW YORK NY   119 98 5 21:07 6:48 18:01 57 71.5 %
TALIB SALIH M61 10909 CPTC NEW YORK NY   120 99 2 21:10 6:49 16:52 22 76.4 %
FYODOROVA ANNA F25 10546 CPTC BROOKLYN NY   121 22 11 21:17 6:51 21:17 29 69.5 %
POWER TOM M60 10911   BRONXVILLE NY   122 100 3 21:18 6:52 17:07 30 75.2 %
DANIELIAN BRIAN M32 10781   FOREST HILLS NY   123 101 22 21:20 6:52 21:10 133 60.9 %
HEATH THOMAS M33 10786   NEW YORK NY   124 102 23 21:23 6:53 21:08 131 61.0 %
BUESCHER OLIVER M29 10747   BERLIN -- GERMANY 125 103 31 21:26 6:54 21:24 135 60.2 %
HOSEA IRWIN M54 10879 TRD NEW YORK NY   126 104 6 21:31 6:56 18:12 62 70.8 %
HINTON TODD M42 10835   BRONX NY   127 105 16 21:32 6:56 20:02 118 64.3 %
MITCHELL NICHOLAS M46 10859 WTC HAWTHORNE NY   128 106 10 21:32 6:56 19:26 100 66.3 %
BADGER SONYA F39 10590 MILL LONG ISLAND CITY NY   129 23 1 21:37 6:58 20:59 28 70.4 %
FRAME ITHIEL M24 10934   GRAND JUNCTION CO   130 107 32 21:39 6:59 21:39 141 59.5 %
SADOFF CHARLIE M36 10780   WASHINGTON DC   131 108 24 21:45 7:00 21:09 132 60.9 %
WHITE MATT M15 10713   SADDLE RIVER NJ   132 109 11 21:47 7:01 20:11 122 63.9 %
VAZQUEZ ANN E F44 10632 SHOR BROOKLYN NY   133 24 2 21:50 7:02 20:25 25 72.4 %
MANN J. JOHN M58 10894   BRONX NY   134 110 5 21:52 7:03 17:53 53 72.0 %
DARRESS RONALD M54 10870   LYNBROOK NY   135 111 7 21:53 7:03 18:31 73 69.6 %
GENTRY PETER M27 10935   MADISON WI   136 112 33 21:53 7:03 21:53 144 58.9 %
PAPANDREW CATHY F43 10631 NHP LYNBROOK NY   137 25 3 21:56 7:04 20:42 27 71.4 %
PAHNKE LOUIS M36 10788 TRD NEW YORK NY   138 113 25 21:57 7:04 21:21 134 60.4 %
SANDOVAL CINTHYA F22 10537   FLUSHING NY   139 26 12 21:59 7:05 21:59 36 67.3 %
JOHNSON SCOTT M34 10778 CPTC NEW YORK NY   140 114 26 22:00 7:05 21:38 139 59.5 %
SUAREZ ALEXI M52 10872   PASSAIC NJ   141 115 8 22:01 7:06 18:56 85 68.0 %
OLSON TRACY F31 10589 CPTC NEW YORK NY   142 27 2 22:07 7:08 22:05 37 66.9 %
MARINO DAVID M35 10802   NEW YORK NY   143 116 27 22:08 7:08 21:39 140 59.5 %
HARTE KEVIN M36 10806   BRONX NY   144 117 28 22:08 7:08 21:32 136 59.9 %
COBOS JONATHAN M15 10702   UNION NJ   145 118 12 22:13 7:10 20:35 126 62.6 %
HOWARD SIDNEY M67 11174 CPTC PLAINFIELD NJ   146 119 1 22:17 7:11 16:49 21 76.6 %
GLEASON JOHN M49 10951 CPTC WARWICK NY   147 120 11 22:19 7:11 19:40 107 65.5 %
TOUNG DAVID H M48 10854 NYF NEW YORK NY   148 121 12 22:20 7:12 19:50 111 64.9 %
VASQUEZ PHILIP A M54 10874 CPTC NEW YORK NY   149 122 9 22:22 7:12 18:56 86 68.1 %
RUSSO FRANK J M54 10873   WAYNE NJ   150 123 10 22:24 7:13 18:57 87 68.0 %
ARNOLD JENNA F16 10517   PHILADELPHIA PA 151 28 9 22:25 7:13 21:40 34 68.2 %
COSGROVE PAT J M65 11143   ELIZABETH NJ 152 124 2 22:25 7:13 17:14 34 74.8 %
POTTER MICHAEL M44 10812 CPTC BROOKLYN NY 153 125 17 22:28 7:14 20:35 127 62.6 %
SCHNEIDER TILL M29 10748   NEW YORK NY 154 126 34 22:34 7:16 22:32 150 57.2 %
VAZQUEZ JOSE ANGEL M50 10868 WSX NEW YORK NY 155 127 11 22:38 7:18 19:47 108 65.1 %
KEHOE TOM M29 10757   FAR ROCKAWAY NY 156 128 35 22:39 7:18 22:37 153 57.0 %
UNDERWOOD JAMES A. M53 10876   LAUREL NY 157 129 12 22:39 7:18 19:20 97 66.7 %
BARDO JEANNINE F43 10629 CPTC BROOKLYN NY 158 29 4 22:44 7:20 21:27 32 68.9 %
HANLEY LAUREN F14 10504   DOBBS FERRY NY 159 30 2 22:45 7:20 21:25 31 69.0 %
ADZNIASHVILI ESTHER F18 10926   FLUSHING NY 160 31 10 22:47 7:20 22:32 40 65.6 %
TOBIASSON JENS M33 10943 FRNY ASTORIA NY 161 130 29 22:48 7:21 22:32 151 57.2 %
FARAO GERARD M17 10703 RBH JERSEY CITY NJ 162 131 13 22:50 7:21 21:48 143 59.1 %
FOX JOHN M36 10791   NEW YORK NY 163 132 30 22:50 7:21 22:12 146 58.0 %
CORRE NICOLE F25 10533   BLOOMFIELD NJ 164 32 13 22:59 7:24 22:59 43 64.3 %
VASILESCU LAURENT M29 10741 NYF NEW YORK NY 165 133 36 23:01 7:25 22:59 158 56.0 %
EUGENIO ALFONSO M35 10762 WSX NEW YORK NY 166 134 31 23:01 7:25 22:31 149 57.2 %
SHEEHAN CON M51 10864   BRONX NY 167 135 13 23:01 7:25 19:58 117 64.5 %
SMITH SARAH F30 10598   NEW YORK NY 168 33 3 23:04 7:26 23:03 44 64.1 %
PAPANDREW CASSIE F15 10925   LYNBROOK NY 169 34 11 23:08 7:27 22:05 38 66.9 %
KOSA JOHN M49 10855   NEW YORK NY 170 136 13 23:11 7:28 20:26 125 63.1 %
IARKO NATALIE F33 10592 MCNY NEW YORK NY 171 35 4 23:13 7:29 23:06 45 64.0 %
WALSH JOSIE F26 10539   CLIFFSIDE PARK NJ 172 36 14 23:17 7:30 23:17 47 63.5 %
MCMAHON COLLEEN F22 10543     NY 173 37 15 23:19 7:31 23:19 48 63.4 %
GERBER PAUL M28 10755   BROOKLYN NY 174 137 37 23:21 7:31 23:20 163 55.2 %
RANKIN JON M24 10937   BRONX NY 175 138 38 23:22 7:32 23:22 165 55.2 %
ROSENBERG DANIEL M35 10782   NEW YORK NY 176 139 32 23:23 7:32 22:53 157 56.3 %
CAHILL REGINA F F52 10659 PPTC BROOKLYN NY 177 38 1 23:29 7:34 20:01 22 73.8 %
SPILKA THEO M44 10818 CPTC RIDGEWOOD NJ 178 140 18 23:31 7:35 21:33 137 59.8 %
YAN NING M43 10828   YORKTOWN HEIGHTS NY 179 141 19 23:34 7:36 21:46 142 59.2 %
KLIMKEWICZ MICHAEL M29 10758   LONG ISLAND CITY NY 180 142 39 23:35 7:36 23:33 167 54.7 %
CORADIN BARBARA F34 10594 WSX MIDDLE VILLAGE NY 181 39 5 23:44 7:39 23:33 49 62.8 %
MICHELSOHN MARIE-LOUISE F65 10675 CPTC STONY BROOK NY 182 40 1 23:46 7:40 16:54 1 87.5 %
SHEEHAN MARGOT F48 10641 CPTC NEW YORK NY 183 41 2 23:47 7:40 21:19 30 69.4 %
LOPEZ JUAN J M30 10784 WSX BRONX NY 184 143 33 23:50 7:41 23:46 169 54.2 %
OSTROWSKI ANDREA F42 10633 CPTC NEW YORK NY 185 42 5 23:55 7:42 22:45 42 65.0 %
FOSSETTA MICHAEL M15 10704 RBH JERSEY CITY NJ 186 144 14 24:08 7:47 22:21 147 57.6 %
KENNY EDWARD M41 10813   HARRISON NY 187 145 20 24:10 7:47 22:40 154 56.9 %
ALCIVAR PATRICIA F29 10542   FOREST HILLS NY 188 43 16 24:18 7:50 24:18 51 60.9 %
KIMCHE SYLVIE F59 10663 CPTC WESTERVILLE OH 189 44 1 24:20 7:50 18:53 13 78.3 %
GERMOSEN IVAN M37 10800 WSX NEW YORK NY 190 146 34 24:21 7:51 23:31 166 54.8 %
RIVERA PEDRO M65 11144   BROOKLYN NY 191 147 3 24:22 7:51 18:44 80 68.8 %
GALLO MICHAEL M43 10822   NEW YORK NY 192 148 21 24:37 7:56 22:44 155 56.7 %
LIRIANO JUAN M28 10744   YONKERS NY 193 149 40 24:43 7:58 24:42 176 52.1 %
BOEHMCKE CHRISTOPHER M45 10856   SUMMIT NJ 194 150 14 24:48 8:00 22:33 152 57.1 %
CHANG PHILIP M29 10749 FRNY GREAT NECK NY 195 151 41 24:50 8:00 24:48 177 51.9 %
ZIKRY BASSEL M13 10685   NEW YORK NY 196 152 4 24:51 8:00 22:06 145 58.3 %
HORN MICHAEL M26 10938   KEW GARDENS NY 197 153 42 24:51 8:00 24:51 178 51.9 %
PLATA ISAIAS M19 10712   NEW YORK NY 198 154 15 24:52 8:01 24:20 173 52.9 %
COUGHLIN MOLLY F22 10562   MADISON WI 199 45 17 25:04 8:05 25:04 55 59.0 %
STANTON NICHOLAS M39 10775   NEW YORK NY 200 155 35 25:06 8:05 23:53 171 53.9 %
CUMMINGS CLAUDIA F37 10591 FRNY BROOKLYN NY   201 46 6 25:07 8:06 24:39 53 60.0 %
MARTINEZ ANGEL M59 10888   BRONX NY   202 156 6 25:11 8:07 20:25 124 63.1 %
BIONE JOHN M46 10851   ASTORIA NY   203 157 15 25:19 8:10 22:51 156 56.4 %
HAUK RUSSELL M56 10895 SHOR ROCKAWAY NY   204 158 7 25:20 8:10 21:05 130 61.1 %
LIBERTELLI JOE M49 10852   ROCKVILLE MD   205 159 16 25:22 8:10 22:21 148 57.6 %
MOUNTCASTLE PAUL M35 10792   FLUSHING NY   206 160 36 25:25 8:11 24:52 179 51.8 %
DIVER MARY E. F52 10654 CPTC NEW YORK NY   207 47 2 25:26 8:12 21:41 35 68.2 %
PAPE GERALD M46 10949   NEW YORK NY   208 161 17 25:33 8:14 23:03 160 55.9 %
RITCHIE FRANK M40 10834 TRD NEW YORK NY   209 162 22 25:34 8:14 24:09 172 53.3 %
ROSADO MARY V F57 10662 CPTC NEW YORK NY   210 48 2 25:35 8:15 20:25 26 72.4 %
SZTUL HENRY M27 10753   NEW YORK NY   211 163 43 25:38 8:16 25:38 186 50.3 %
KIM HYONAH F27 10564   NEW YORK NY   212 49 18 25:40 8:16 25:40 60 57.6 %
KENNY STEPHEN M14 10682 RBH JERSEY CITY NJ   213 164 5 25:41 8:17 23:20 162 55.2 %
LAWSON BLAINE M64 10907 BTC STONY BROOK NY   214 165 4 25:42 8:17 19:56 116 64.6 %
GEVA YAIR M86 10777         215 166 1 25:49 8:19 13:13 1 97.5 %
HEES PHIL M46 10857   FLUSHING NY   216 167 18 25:52 8:20 23:21 164 55.2 %
UNDERWOOD CAROL F51 10656   LAUREL NY   217 50 3 25:54 8:21 22:22 39 66.1 %
WILSON MICHAEL G M60 10910 MILL ROOSEVELT NY   218 168 5 25:57 8:22 20:52 129 61.8 %
LOPEZ OCTAVIO M66 10908   BROOKLYN NY   219 169 4 25:58 8:22 19:47 109 65.1 %
ROMAN JASMIN F28 10563   NEW YORK NY   220 51 19 26:12 8:27 26:12 62 56.4 %
ROSS LAUREN F49 10642   LONG ISLAND CITY NY   221 52 3 26:12 8:27 23:12 46 63.7 %
WEST MORGAN F15 10525 RBH SECAUCUS NJ   222 53 12 26:20 8:29 25:08 56 58.8 %
BLANEY ANNIE F15 10920   JERSEY CITY NJ   223 54 13 26:25 8:31 25:13 58 58.6 %
MATAMOROS SUSANNA F15 10527 RBH JERSEY CITY NJ   224 55 14 26:26 8:31 25:14 59 58.6 %
TROYA MARIO M50 10867   ASTORIA NY ECUADOR 225 170 14 26:26 8:31 23:07 161 55.7 %
TICK EVAN M47 10858   NEW YORK NY   226 171 19 26:27 8:31 23:41 168 54.4 %
BERNARDO EGIDIO M66 11145   WEEHAWKEN NJ   227 172 5 26:29 8:32 20:10 121 63.9 %
CLAURE HOWARD ASTERIA F52 10652 WSX PLAINFIELD NJ   228 56 4 26:33 8:33 22:38 41 65.3 %
STORER HEATHER F27 10567   BRONX NY   229 57 20 26:40 8:36 26:40 68 55.5 %
MILLS OMAR M31 10797   NEW YORK NY   230 173 37 26:51 8:39 26:43 191 48.2 %
GREENE CHRISTINE F46 10646   NEW YORK NY   231 58 4 26:57 8:41 24:42 54 59.8 %
SADOFF ELIZABETH F57 10664   WASHINGTON DC   232 59 3 26:57 8:41 21:31 33 68.7 %
FRIEDMAN DAVID N M32 10808   NEW YORK NY   233 174 38 27:03 8:43 26:50 192 48.0 %
MCCAFFREY JACKIE F20 10551   BRONX NY   234 60 21 27:04 8:43 27:03 71 54.7 %
WALSH ADRIENNE F39 10595   NEW YORK NY   235 61 7 27:06 8:44 26:19 64 56.2 %
DONOVAN KATHRYN A F48 10651 VCTC NEW YORK NY   236 62 5 27:07 8:44 24:18 52 60.8 %
BECK DAVID M38 10771   BRONX NY   237 175 39 27:12 8:46 26:05 188 49.4 %
SPILKA THEO M44 10506 CPTC RIDGEWOOD NJ   238 176 23 27:20 8:49 25:03 181 51.4 %
BAILEY JILLIAN F14 10501 RBH JERSEY CITY NJ   239 63 3 27:24 8:50 25:48 61 57.3 %
OCHOA SOFIA F17 10523 RBH JERSEY CITY NJ   240 64 15 27:26 8:50 26:51 69 55.1 %
LALLY KACIE F23 10558   NEW YORK NY   241 65 22 27:26 8:50 27:26 75 53.9 %
MENENDEZ MELANIE F16 10522 RBH NORTH BERGEN NJ   242 66 16 27:30 8:52 26:35 67 55.6 %
NOLAN MARGARET R F46 10649 VCTC BRONX NY   243 67 6 27:30 8:52 25:13 57 58.6 %
ROBERTS RICHARD J M63 10912   IRVINGTON NY   244 177 6 27:31 8:52 21:33 138 59.8 %
NOYES KIRSTEN F41 11142 TRD NEW YORK NY   245 68 6 27:32 8:52 26:34 66 56.0 %
KLING ALISON F29 10559   BROOKLYN NY   246 69 23 27:34 8:53 27:34 76 53.6 %
DIAZ NELSON M43 10823   BRONX NY   247 178 24 27:37 8:54 25:31 183 50.5 %
GOLDBERG MARK M35 10804   NEW YORK NY   248 179 40 27:47 8:57 27:11 194 47.4 %
TAGANO DANNY M29 10944   YONKERS NY   249 180 44 27:49 8:58 27:47 199 46.4 %
EVANS BRIAN M22 10756   BRONX NY   250 181 45 27:56 9:00 27:55 201 46.1 %
BAHL KELSEY F14 10502 RBH UNION CITY NJ 251 70 4 27:57 9:00 26:19 63 56.2 %
GONZALEZ JEANNETTE F40 10636   BAYSIDE NY 252 71 7 27:58 9:01 26:59 70 54.8 %
BOHN MICHAEL M46 10861   MOUNT VERNON NY 253 182 20 27:58 9:01 25:14 182 51.0 %
CONANT CHRISTOPHER M29 10736   JAMAICA NY 254 183 46 28:01 9:02 27:59 202 46.0 %
KHAN BABAR M31 10796   NEW YORK NY 255 184 41 28:12 9:05 28:03 203 45.9 %
BRACKEN RACQUEL F24 10557   NEW YORK NY 256 72 24 28:20 9:08 28:20 80 52.2 %
TIMBERLAKE ROBERT M36 10764   JERSEY CITY NJ 257 185 42 28:25 9:10 27:38 198 46.6 %
WILSON ATIBA M52 10881   NEW YORK NY 258 186 15 28:33 9:12 24:34 175 52.5 %
FOX CAROL F36 10596   NEW YORK NY 259 73 8 28:36 9:13 28:11 79 52.4 %
MARTINEZ ISABEL F32 10611   NEW YORK NY 260 74 9 28:37 9:13 28:32 83 51.8 %
WILLIAMS IEUAN M34 10801   BRONX NY 261 187 43 28:39 9:14 28:11 205 45.7 %
HEES RACHEL F21 10548   WHEATLEY HTS NY 262 75 25 28:40 9:14 28:40 84 51.6 %
FRIEDMAN DAVID M M56 10892 SAC MONROE TWP NJ 263 188 8 28:40 9:14 23:51 170 54.0 %
ROBBINS BERTON S M74 11179 ROKG ROCKAWAY BEACH NY 264 189 1 28:42 9:15 19:52 112 64.9 %
JONES KENNETH J M76 10916 MILL LARCHMONT NY 265 190 1 28:43 9:15 19:12 92 67.1 %
STOVER CHRISTIANA F31 10603   NEW YORK NY 266 76 10 28:45 9:16 28:43 85 51.5 %
BRIOSO DENNIS M29 10752   FLUSHING NY 267 191 47 28:48 9:17 28:46 207 44.8 %
YEROFYEYEN AUDRIY M32 10941   BROOKLYN NY 268 192 44 28:52 9:18 28:38 206 45.0 %
MCCAFFREY TOM M49 10860   BRONX NY 269 193 21 28:59 9:20 25:33 184 50.4 %
GENSLER GEORGE F40 10634   NEW YORK NY 270 77 8 29:00 9:21 27:59 78 52.8 %
PARKER LEONI F42 10637 VCTC MT. VERNON NY 271 78 9 29:03 9:22 27:38 77 53.5 %
TRIGG HEATHER F26 10549   NEW YORK NY 272 79 26 29:09 9:24 29:09 90 50.7 %
DIAZ JOSE M13 10681   NEW YORK NY 273 194 6 29:09 9:24 25:55 187 49.7 %
WINBERRY ELIZABETH F26 10550   NEW YORK NY 274 80 27 29:13 9:25 29:13 91 50.6 %
ST PHILLIP PETER M39 10940   BRONXVILLE NY 275 195 45 29:13 9:25 27:49 200 46.3 %
HANKES MATT M33 10939   SILVER SPRING MD 276 196 46 29:18 9:27 28:57 209 44.5 %
HARKINS JEAN F36 10607 VCTC BRONX NY 277 81 11 29:20 9:27 28:55 89 51.1 %
PULASKI LAURIE F41 10638   FRESH MEADOWS NY 278 82 10 29:25 9:29 28:23 81 52.4 %
CULLEN JOHN M34 10810   NEW YORK NY 279 197 47 29:27 9:30 28:58 210 44.5 %
QUIRK ELIZABETH F28 10552   BRONX NY 280 83 28 29:30 9:30 29:30 92 50.1 %
CAVALLI ALEX M35 10811   FREEHOLD NJ 281 198 48 29:31 9:31 28:53 208 44.6 %
MARCUCCI HELEN F41 10630   JAMAICA NY 282 84 11 29:32 9:31 28:30 82 52.2 %
WOLF JENNIFER F38 10619   BAYSIDE NY 283 85 12 29:34 9:32 28:52 88 51.2 %
WILBAR MEGHAN F26 10541   BROOKLYN NY 284 86 29 29:35 9:32 29:35 93 50.0 %
COLLINS REBECCA F28 10553   NEW YORK NY 285 87 30 29:35 9:32 29:35 94 50.0 %
PRIEBE TIFFANY J F28 10556   OAK PARK IL 286 88 31 29:35 9:32 29:35 95 50.0 %
KELLOGG RILEY F45 10648   JERSEY CITY NJ 287 89 7 29:36 9:32 27:25 74 53.9 %
O'CONNOR SIOBHAN F28 10538   NEW YORK NY 288 90 32 29:45 9:35 29:45 96 49.7 %
COCCHIARA RICHARD M33 10805   LONG ISLAND CITY NY 289 199 49 29:51 9:37 29:30 211 43.7 %
KUCHARCZYK SUZANNE F32 10604   NEW YORK NY 290 91 13 29:55 9:39 29:50 97 49.5 %
STEWART JAY M14 10680   BRONX NY 291 200 7 30:02 9:41 27:18 196 47.2 %
SPELMAN CAROLINE F31 10599   RYE, NY 292 92 14 30:13 9:44 30:11 100 49.0 %
COHEN WENDY F48 10650   NEW YORK NY 293 93 8 30:18 9:46 27:09 72 54.4 %
COCCHIARA CHRISTINA F29 10560   GLEN OAKS NY 294 94 33 30:19 9:46 30:19 102 48.8 %
SMITH ROBERT M47 10947   NEW YORK NY 295 201 22 30:19 9:46 27:09 193 47.4 %
MORA ROSA F30 10608 FRED WEST NEW YORK NJ 296 95 15 30:23 9:48 30:22 103 48.7 %
COWAN DANIELLE F25 10569   BROOKLYN NY 297 96 34 30:27 9:49 30:27 104 48.6 %
RUBERTI KIM F43 11139   NEW YORK NY 298 97 12 30:29 9:50 28:46 87 51.4 %
HERRERA BELGICA F32 10606   NEW YORK NY 299 98 16 30:36 9:52 30:31 105 48.4 %
DOINO JOHN M48 10849   PUTNAM VALLEY NY 300 202 23 30:36 9:52 27:11 195 47.4 %
ASKVSHAY ALMA F28 10532   NEW YORK NY   301 99 35 30:39 9:53 30:39 106 48.2 %
CEPELLOS PATRICIA F28 10568   Mount Vernon NY   302 100 36 30:41 9:53 30:41 107 48.2 %
YERATYEYER OLGA F28 10566   BROOKLYN NY   303 101 37 30:44 9:54 30:44 108 48.1 %
TANNENBAUM JEFFREY A M59 10891   NEW YORK NY   304 203 9 30:47 9:55 24:58 180 51.6 %
WEST MICHAEL M53 10880 HRA NEW YORK NY   305 204 16 30:58 9:59 26:25 189 48.8 %
LUSHNIKOVA YULIA F31 10609   NEW YORK NY   306 102 17 31:22 10:07 31:19 112 47.2 %
TORRES MARITZA F47 10639   CAMBRIA HEIGHTS NY   307 103 9 31:41 10:13 28:44 86 51.4 %
AUERBACH ELIZA F29 10554   NEW YORK NY   308 104 38 31:42 10:13 31:42 114 46.6 %
HIGGINS BRENDAN T M38 10776   NEW YORK NY   309 205 50 31:44 10:14 30:26 213 42.3 %
PENTA THOMAS M37 10942   REGO PARK NY   310 206 51 31:45 10:14 30:40 214 42.0 %
CORNWELL BRANDI F28 10555   NEW YORK NY   311 105 39 31:46 10:14 31:46 116 46.5 %
CUEVAS LORENA F34 10597   NY NY   312 106 18 31:47 10:15 31:33 113 46.9 %
CORNWELL JASON M32 10803   NEW YORK NY   313 207 52 31:47 10:15 31:32 216 40.9 %
LONDINO ALAN M30 10807   NANUET NY   314 208 53 31:50 10:16 31:45 217 40.6 %
CAMAJ KRISTINA F36 10610   BRONX NY   315 107 19 32:12 10:23 31:44 115 46.6 %
IVAN ANN F45 10645   RYE NY   316 108 10 32:19 10:25 29:56 99 49.4 %
ALANON LORRAINE F53 10655   ELMSFORD NY   317 109 5 32:20 10:25 27:13 73 54.3 %
WOODS CHRISTINE L. F40 11136   NEW YORK NY   318 110 13 32:25 10:27 31:17 111 47.2 %
WHARTON DELICIA F15 10928   YONKERS NY   319 111 17 32:29 10:28 31:01 109 47.7 %
YEAGER SUZANNE F34 10602   BRONX NY   320 112 20 32:31 10:29 32:16 118 45.8 %
VALENTA LINDA F30 10601   BURLINGTON -- CANADA 321 113 21 32:33 10:30 32:32 119 45.4 %
KELLER LINDA F46 10647   HARTSDALE NY   322 114 11 32:33 10:30 29:51 98 49.5 %
GALLAGHER JOSEPH M68 11175 ROKG CORONA NY   323 209 6 32:33 10:30 24:20 174 52.9 %
KELLY ALAN M58 10890 NYF NEW YORK NY   324 210 10 32:36 10:30 26:40 190 48.3 %
TAYLOR KELLY M31 10809   NEW YORK NY   325 211 54 32:41 10:32 32:31 219 39.6 %
MARMO LAURA F45 10640   BROOKLYN NY   326 115 12 32:42 10:32 30:17 101 48.8 %
STOLLS JERRY M73 11176 MILL NEW YORK NY   327 212 2 32:44 10:33 23:00 159 56.0 %
HERLIHY DENISE F27 10561   NEW YORK NY   328 116 40 32:54 10:36 32:54 120 44.9 %
KAIRYS STEPHEN M45 10862 NYF NEW YORK NY   329 213 24 32:56 10:37 29:57 212 43.0 %
DELANEY KEIR M53 10866   BAYONNE NJ   330 214 17 32:56 10:37 28:06 204 45.8 %
SANFORD KAREN F43 10635   NEW YORK NY   331 117 14 33:06 10:40 31:14 110 47.3 %
HARTMANN CHRISTA E F64 10670 MERM NEW YORK NY   332 118 1 33:07 10:40 23:54 50 61.8 %
GREEN JUDITH F26 10535   BAYSIDE NY   333 119 41 33:19 10:44 33:19 122 44.4 %
KOIDE SAB S M83 11182 MILL DOBBS FERRY NY   334 215 1 34:43 11:11 19:38 106 65.6 %
CHALLA TERESA F43 11118   NEW YORK NY   335 120 15 34:53 11:15 32:55 121 44.9 %
THEOBALD HENRY M70 11180   BRONX NY   336 216 3 34:55 11:15 25:33 185 50.4 %
MARTINEZ VICTOR M49 10846   BRONX NY   337 217 25 35:14 11:21 31:03 215 41.5 %
SANTOS AMELIA JOSELINE F30 10605   BRONX NY   338 121 22 35:20 11:23 35:19 127 41.9 %
HESTER KATIE F15 10524 RBH NEW YORK NY   339 122 18 35:42 11:30 34:05 124 43.4 %
VASIL CELESTE F15 10526 RBH JERSEY CITY NJ   340 123 19 35:43 11:31 34:06 125 43.3 %
TRYJANSKI OLIVIA F16 10520   LYNDHURST NJ   341 124 20 36:08 11:39 34:56 126 42.3 %
QIU LISA F19 10929   PORT WASHINGTON NY   342 125 21 37:14 12:00 37:05 130 39.9 %
TIESI SHERRI F36 10600   MOUNT VERNON NY   343 126 23 37:25 12:04 36:53 129 40.1 %
THOMPSON ERIC M70 11177   BROOKLYN NY   344 218 4 37:35 12:07 27:30 197 46.8 %
WILSON NAN F48 10643   NEW YORK NY   345 127 13 37:48 12:11 33:53 123 43.6 %
TIGHE PAMELA F53 10657   NEW YORK NY   346 128 6 37:48 12:11 31:49 117 46.4 %
YAREMA ANTHONY M11 10683   NEW YORK NY   347 219   38:08 12:18 32:09 218 40.1 %
WHARTON DENIESA F12 10507   YONKERS NY   348 129 5 39:13 12:39 35:39 128 41.5 %
HESTER MEGAN F16 10521   BAYONNE NJ   349 130 22 39:22 12:41 38:04 131 38.8 %
WHARTON LOUIS M44 10829   YONKERS NY   350 220 25 39:37 12:46 36:19 220 35.5 %
REDDY KATHLEEN F35 10593   BRONX NY 351 131 24 40:00 12:54 39:35 132 37.3 %
PENNO ESTHER F22 10565   BRONX NY 352 132 42 43:01 13:52 43:01 133 34.4 %
HASING TERESA F74 11116   NEW YORK NY 353 133 1 43:03 13:53 26:23 65 56.0 %